Time;durP1;ratioP1;P1;durP2;ratioP2;P2;SDS_P1;SDS_P2;PMS_P1;PMS_P2;Temp;Humidity;BMP_temperature;BMP_pressure;BME280_temperature;BME280_humidity;BME280_pressure;Samples;Min_cycle;Max_cycle;Signal;HPM_P1;HPM_P2
2023/01/31 00:00:31;;;;;;;9.02;4.70;;;3.80;99.90;;;;;;6206446;23;20533;-73
2023/01/31 00:02:58;;;;;;;9.18;4.90;;;3.70;99.90;;;;;;6194926;23;20229;-74
2023/01/31 00:05:26;;;;;;;6.10;5.00;;;3.70;99.90;;;;;;6199111;23;20296;-74
2023/01/31 00:07:53;;;;;;;9.68;5.43;;;3.60;99.90;;;;;;6193498;23;20206;-74
2023/01/31 00:10:20;;;;;;;6.47;4.90;;;3.50;99.90;;;;;;6190277;23;20229;-74
2023/01/31 00:12:47;;;;;;;8.60;5.35;;;3.40;99.90;;;;;;6184507;23;20222;-74
2023/01/31 00:15:15;;;;;;;7.70;4.95;;;3.30;99.90;;;;;;6178808;23;20218;-74
2023/01/31 00:17:43;;;;;;;7.05;5.03;;;3.30;99.90;;;;;;6187198;23;20189;-74
2023/01/31 00:20:12;;;;;;;9.32;6.00;;;3.30;99.90;;;;;;6193969;23;20276;-75
2023/01/31 00:22:39;;;;;;;11.57;5.35;;;3.20;99.90;;;;;;6178271;23;20238;-75
2023/01/31 00:25:07;;;;;;;6.82;5.32;;;3.20;99.90;;;;;;6203308;23;20204;-75
2023/01/31 00:27:34;;;;;;;7.10;5.75;;;3.20;99.90;;;;;;6197832;23;20292;-75
2023/01/31 00:30:01;;;;;;;8.88;5.18;;;3.20;99.90;;;;;;6189385;23;20269;-74
2023/01/31 00:32:28;;;;;;;10.43;5.50;;;3.20;99.90;;;;;;6215246;23;20604;-74
2023/01/31 00:34:57;;;;;;;8.73;5.63;;;3.20;99.90;;;;;;6200794;23;20268;-74
2023/01/31 00:37:23;;;;;;;7.35;5.80;;;3.20;99.90;;;;;;6202807;23;20265;-75
2023/01/31 00:39:51;;;;;;;8.85;5.45;;;3.20;99.90;;;;;;6181289;23;20189;-74
2023/01/31 00:42:18;;;;;;;6.82;5.28;;;3.20;99.90;;;;;;6192074;23;20717;-74
2023/01/31 00:44:44;;;;;;;9.40;5.70;;;3.10;99.90;;;;;;6187197;23;20269;-73
2023/01/31 00:47:12;;;;;;;8.95;5.80;;;3.20;99.90;;;;;;6188768;23;20266;-74
2023/01/31 00:49:39;;;;;;;8.25;5.22;;;3.20;99.90;;;;;;6179700;23;20192;-74
2023/01/31 00:52:07;;;;;;;6.38;4.85;;;3.10;99.90;;;;;;6200758;23;20184;-74
2023/01/31 00:54:34;;;;;;;6.43;5.55;;;3.20;99.90;;;;;;6190940;23;20248;-74
2023/01/31 00:57:01;;;;;;;10.80;5.53;;;3.20;99.90;;;;;;6195640;23;20241;-74
2023/01/31 00:59:28;;;;;;;6.05;4.88;;;3.20;99.90;;;;;;6179890;23;20849;-73
2023/01/31 01:01:55;;;;;;;8.50;5.30;;;3.20;99.90;;;;;;6179623;23;20559;-74
2023/01/31 01:04:22;;;;;;;6.18;4.53;;;3.20;99.90;;;;;;6191201;23;20288;-74
2023/01/31 01:06:49;;;;;;;5.80;4.40;;;3.20;99.90;;;;;;6183263;23;20201;-74
2023/01/31 01:09:18;;;;;;;8.48;5.18;;;3.20;99.90;;;;;;6188941;23;20179;-74
2023/01/31 01:11:45;;;;;;;8.27;4.90;;;3.20;99.90;;;;;;6189945;23;20606;-74
2023/01/31 01:14:12;;;;;;;8.73;4.78;;;3.20;99.90;;;;;;6200640;23;20231;-74
2023/01/31 01:16:40;;;;;;;7.10;5.05;;;3.30;99.90;;;;;;6203759;23;20203;-74
2023/01/31 01:19:11;;;;;;;9.52;4.68;;;3.30;99.90;;;;;;6177554;23;20200;-74
2023/01/31 01:21:39;;;;;;;6.45;4.30;;;3.30;99.90;;;;;;6178722;23;20274;-74
2023/01/31 01:24:11;;;;;;;8.65;5.50;;;3.30;99.90;;;;;;6186593;23;20230;-74
2023/01/31 01:26:40;;;;;;;10.57;4.40;;;3.30;99.90;;;;;;6204935;23;20618;-74
2023/01/31 01:29:08;;;;;;;8.20;4.70;;;3.30;99.90;;;;;;6179170;23;20234;-74
2023/01/31 01:31:35;;;;;;;6.70;4.05;;;3.30;99.90;;;;;;6199792;23;20215;-74
2023/01/31 01:34:05;;;;;;;8.07;4.65;;;3.30;99.90;;;;;;6193951;23;20203;-75
2023/01/31 01:36:34;;;;;;;7.30;4.45;;;3.30;99.90;;;;;;6179626;23;20181;-74
2023/01/31 01:39:01;;;;;;;6.78;4.30;;;3.30;99.90;;;;;;6178403;23;20209;-74
2023/01/31 01:41:32;;;;;;;6.70;4.70;;;3.30;99.90;;;;;;6183187;23;20728;-74
2023/01/31 01:44:02;;;;;;;8.13;4.70;;;3.20;99.90;;;;;;6201159;23;20220;-74
2023/01/31 01:46:32;;;;;;;7.55;4.90;;;3.20;99.90;;;;;;6204124;23;20191;-74
2023/01/31 01:49:04;;;;;;;6.97;4.60;;;3.20;99.90;;;;;;6180491;23;20271;-75
2023/01/31 01:51:33;;;;;;;6.78;4.60;;;3.20;99.90;;;;;;6180263;23;20191;-74
2023/01/31 01:54:06;;;;;;;5.35;4.40;;;3.20;99.90;;;;;;6197454;23;20602;-74
2023/01/31 01:56:38;;;;;;;7.13;4.90;;;3.20;99.90;;;;;;6178424;23;20646;-75
2023/01/31 01:59:10;;;;;;;8.57;4.80;;;3.20;99.90;;;;;;6194491;23;20191;-75
2023/01/31 02:01:39;;;;;;;10.13;5.10;;;3.20;99.90;;;;;;6202588;23;20889;-74
2023/01/31 02:04:09;;;;;;;8.07;5.03;;;3.10;99.90;;;;;;6184478;23;20211;-74
2023/01/31 02:06:36;;;;;;;8.05;4.85;;;3.10;99.90;;;;;;6188004;23;20539;-74
2023/01/31 02:09:07;;;;;;;9.18;5.13;;;3.40;99.90;;;;;;6178964;23;20187;-75
2023/01/31 02:11:34;;;;;;;7.07;5.50;;;3.10;99.90;;;;;;6176711;23;20531;-75
2023/01/31 02:14:10;;;;;;;7.25;5.05;;;3.10;99.90;;;;;;6201859;23;20245;-74
2023/01/31 02:16:38;;;;;;;7.25;5.00;;;3.10;99.90;;;;;;6194008;23;20187;-74
2023/01/31 02:19:13;;;;;;;10.25;5.50;;;3.00;99.90;;;;;;6177975;23;20191;-75
2023/01/31 02:22:14;;;;;;;8.45;5.80;;;3.00;99.90;;;;;;6198280;23;20313;-75
2023/01/31 02:25:18;;;;;;;7.63;5.38;;;3.10;99.90;;;;;;6099341;23;20634;-74
2023/01/31 02:28:02;;;;;;;7.57;6.20;;;3.00;99.90;;;;;;6191692;23;20183;-75
2023/01/31 02:30:55;;;;;;;8.88;5.78;;;3.00;99.90;;;;;;6178571;23;20722;-75
2023/01/31 02:33:29;;;;;;;10.05;6.40;;;3.00;99.90;;;;;;6192854;23;20286;-74
2023/01/31 02:36:04;;;;;;;10.02;5.95;;;3.00;99.90;;;;;;6181744;23;20287;-75
2023/01/31 02:38:44;;;;;;;9.75;6.95;;;3.10;99.90;;;;;;6181352;23;20203;-75
2023/01/31 02:41:19;;;;;;;9.85;6.75;;;3.10;99.90;;;;;;6181578;23;20533;-74
2023/01/31 02:46:45;;;;;;;11.07;7.05;;;3.00;99.90;;;;;;6187496;23;20219;-74
2023/01/31 02:49:33;;;;;;;11.27;6.80;;;3.00;99.90;;;;;;6185051;23;20208;-75
2023/01/31 02:52:17;;;;;;;11.52;8.25;;;3.00;99.90;;;;;;6206547;23;20192;-74
2023/01/31 02:57:39;;;;;;;10.38;7.57;;;2.90;99.90;;;;;;6190589;23;20267;-75
2023/01/31 03:00:08;;;;;;;10.48;7.82;;;2.90;99.90;;;;;;6179718;23;20542;-74
2023/01/31 03:02:35;;;;;;;10.63;7.72;;;3.00;99.90;;;;;;6186933;23;20196;-74
2023/01/31 03:05:04;;;;;;;11.82;7.85;;;3.00;99.90;;;;;;6198449;23;20200;-74
2023/01/31 03:07:35;;;;;;;11.02;7.38;;;3.00;99.90;;;;;;6196732;23;20181;-75
2023/01/31 03:10:15;;;;;;;11.65;7.35;;;3.00;99.90;;;;;;6181819;23;20275;-75
2023/01/31 03:12:57;;;;;;;15.02;8.25;;;3.10;99.90;;;;;;6185449;23;20285;-75
2023/01/31 03:18:29;;;;;;;11.55;7.72;;;3.10;99.90;;;;;;6194871;23;20251;-75
2023/01/31 03:21:03;;;;;;;13.65;7.60;;;3.00;99.90;;;;;;6187302;23;20186;-75
2023/01/31 03:23:34;;;;;;;10.75;7.50;;;3.10;99.90;;;;;;6179449;23;20222;-75
2023/01/31 03:26:04;;;;;;;12.60;7.63;;;3.10;99.90;;;;;;6191016;23;20186;-74
2023/01/31 03:28:35;;;;;;;15.35;8.18;;;3.20;99.90;;;;;;6186226;23;20194;-75
2023/01/31 03:31:10;;;;;;;9.63;7.30;;;3.20;99.90;;;;;;6180379;23;20197;-74
2023/01/31 03:33:42;;;;;;;11.95;7.50;;;3.10;99.90;;;;;;6196212;23;20213;-74
2023/01/31 03:36:17;;;;;;;15.27;8.60;;;3.20;99.90;;;;;;6209811;23;20292;-75
2023/01/31 03:38:53;;;;;;;15.65;7.57;;;3.20;99.90;;;;;;6194218;23;20181;-74
2023/01/31 03:41:27;;;;;;;12.55;7.88;;;3.20;99.90;;;;;;6182258;23;20229;-75
2023/01/31 03:44:01;;;;;;;14.02;8.55;;;3.20;99.90;;;;;;6177323;23;20220;-75
2023/01/31 03:46:34;;;;;;;14.55;8.20;;;3.20;99.90;;;;;;6200590;23;20250;-74
2023/01/31 03:49:07;;;;;;;13.10;7.28;;;3.20;99.90;;;;;;6203544;23;20179;-74
2023/01/31 03:51:47;;;;;;;10.95;7.70;;;3.20;99.90;;;;;;6176637;23;20181;-75
2023/01/31 03:54:20;;;;;;;10.43;6.70;;;3.20;99.90;;;;;;6191642;23;20553;-75
2023/01/31 03:56:53;;;;;;;12.90;6.88;;;3.20;99.90;;;;;;6183920;23;20222;-75
2023/01/31 03:59:25;;;;;;;12.80;7.55;;;3.10;99.90;;;;;;6203911;23;20527;-75
2023/01/31 04:01:57;;;;;;;13.63;6.95;;;3.10;99.90;;;;;;6192286;23;20653;-75
2023/01/31 04:04:28;;;;;;;11.25;6.72;;;3.10;99.90;;;;;;6177584;23;20291;-74
2023/01/31 04:06:57;;;;;;;11.13;8.25;;;3.10;99.90;;;;;;6191581;23;20193;-74
2023/01/31 04:09:24;;;;;;;13.18;8.20;;;3.00;99.90;;;;;;6188626;23;20194;-75
2023/01/31 04:11:52;;;;;;;13.43;7.63;;;3.00;99.90;;;;;;6196837;23;20185;-74
2023/01/31 04:14:20;;;;;;;12.27;6.80;;;2.90;99.90;;;;;;6193222;23;20293;-75
2023/01/31 04:16:47;;;;;;;12.02;7.43;;;2.90;99.90;;;;;;6178039;23;20223;-74
2023/01/31 04:19:14;;;;;;;12.65;8.10;;;2.90;99.90;;;;;;6202435;23;20231;-75
2023/01/31 04:21:41;;;;;;;12.40;6.93;;;2.90;99.90;;;;;;6199007;23;20186;-75
2023/01/31 04:24:10;;;;;;;10.88;7.82;;;2.90;99.90;;;;;;6185892;23;20222;-75
2023/01/31 04:26:37;;;;;;;13.40;8.77;;;2.80;99.90;;;;;;6185122;23;20196;-74
2023/01/31 04:29:05;;;;;;;10.80;7.20;;;2.80;99.90;;;;;;6189596;23;20213;-74
2023/01/31 04:31:32;;;;;;;14.80;7.80;;;2.70;99.90;;;;;;6178920;23;20200;-75
2023/01/31 04:33:59;;;;;;;12.68;8.10;;;2.70;99.90;;;;;;6197580;23;20232;-74
2023/01/31 04:36:26;;;;;;;8.55;7.15;;;2.70;99.90;;;;;;6181859;23;20233;-75
2023/01/31 04:38:53;;;;;;;12.55;7.75;;;2.70;99.90;;;;;;6196630;23;20199;-75
2023/01/31 04:41:21;;;;;;;13.65;7.97;;;2.70;99.90;;;;;;6194883;23;20265;-74
2023/01/31 04:43:48;;;;;;;12.63;7.72;;;2.70;99.90;;;;;;6203687;23;20298;-75
2023/01/31 04:46:15;;;;;;;14.60;7.60;;;2.60;99.90;;;;;;6187653;23;20186;-75
2023/01/31 04:48:42;;;;;;;13.25;8.13;;;2.60;99.90;;;;;;6193050;23;20258;-75
2023/01/31 04:51:09;;;;;;;15.45;9.20;;;2.60;99.90;;;;;;6195325;23;20281;-73
2023/01/31 04:53:36;;;;;;;18.63;8.88;;;2.60;99.90;;;;;;6184667;23;20203;-74
2023/01/31 04:56:04;;;;;;;15.23;8.50;;;2.50;99.90;;;;;;6182330;23;20252;-75
2023/01/31 04:58:32;;;;;;;14.50;8.05;;;2.50;99.90;;;;;;6191587;23;20202;-74
2023/01/31 05:01:00;;;;;;;15.07;8.80;;;2.50;99.90;;;;;;6192431;23;20937;-73
2023/01/31 05:03:27;;;;;;;13.50;9.27;;;2.50;99.90;;;;;;6197227;23;20273;-74
2023/01/31 05:05:54;;;;;;;15.38;9.88;;;2.40;99.90;;;;;;6199970;23;20974;-74
2023/01/31 05:08:21;;;;;;;14.40;8.60;;;2.50;99.90;;;;;;6191092;23;20196;-75
2023/01/31 05:10:48;;;;;;;15.00;9.20;;;2.40;99.90;;;;;;6185078;23;20248;-75
2023/01/31 05:13:15;;;;;;;14.10;8.55;;;2.50;99.90;;;;;;6176182;23;20207;-75
2023/01/31 05:15:47;;;;;;;13.25;8.73;;;2.40;99.90;;;;;;6184462;23;20221;-74
2023/01/31 05:18:14;;;;;;;10.60;8.13;;;2.40;99.90;;;;;;6194323;23;20261;-74
2023/01/31 05:20:42;;;;;;;16.90;8.65;;;2.50;99.90;;;;;;6179120;23;20198;-75
2023/01/31 05:23:10;;;;;;;12.20;9.10;;;2.50;99.90;;;;;;6180839;23;20675;-74
2023/01/31 05:25:37;;;;;;;13.98;9.18;;;2.50;99.90;;;;;;6187703;23;20614;-74
2023/01/31 05:28:05;;;;;;;14.98;8.68;;;2.50;99.90;;;;;;6177596;23;20182;-74
2023/01/31 05:30:32;;;;;;;12.48;9.77;;;2.50;99.90;;;;;;6186414;23;20272;-75
2023/01/31 05:33:00;;;;;;;11.95;9.63;;;2.50;99.90;;;;;;6187376;23;20221;-75
2023/01/31 05:35:27;;;;;;;17.13;9.90;;;2.40;99.90;;;;;;6196762;23;20250;-72
2023/01/31 05:37:55;;;;;;;17.42;9.95;;;2.40;99.90;;;;;;6177635;23;20187;-73
2023/01/31 05:40:38;;;;;;;19.20;10.20;;;2.30;99.90;;;;;;6166440;23;20199;-79
2023/01/31 05:43:05;;;;;;;13.80;10.18;;;2.30;99.90;;;;;;6171379;23;20212;-80
2023/01/31 05:45:32;;;;;;;14.10;9.77;;;2.30;99.90;;;;;;6165473;23;20288;-73
2023/01/31 05:48:01;;;;;;;13.07;9.00;;;2.20;99.90;;;;;;6181693;23;20187;-75
2023/01/31 05:50:28;;;;;;;12.63;9.65;;;2.20;99.90;;;;;;6183008;23;20207;-76
2023/01/31 05:52:58;;;;;;;15.95;9.65;;;2.10;99.90;;;;;;6186259;23;20281;-75
2023/01/31 05:55:25;;;;;;;15.48;9.10;;;2.10;99.90;;;;;;6188131;23;20194;-75
2023/01/31 05:57:53;;;;;;;15.82;9.05;;;2.00;99.90;;;;;;6179245;23;20278;-76
2023/01/31 06:00:21;;;;;;;13.27;9.10;;;2.00;99.90;;;;;;6182577;23;20186;-75
2023/01/31 06:02:48;;;;;;;13.07;8.38;;;2.00;99.90;;;;;;6184672;23;20208;-76
2023/01/31 06:05:17;;;;;;;10.25;8.02;;;2.00;99.90;;;;;;6175565;23;20689;-75
2023/01/31 06:07:44;;;;;;;15.93;8.35;;;2.00;99.90;;;;;;6179864;23;20287;-76
2023/01/31 06:10:12;;;;;;;14.13;8.35;;;1.90;99.90;;;;;;6196171;23;20186;-76
2023/01/31 06:12:40;;;;;;;11.43;7.75;;;2.00;99.90;;;;;;6192535;23;20239;-76
2023/01/31 06:15:07;;;;;;;11.13;7.75;;;1.90;99.90;;;;;;6189494;23;20250;-76
2023/01/31 06:17:34;;;;;;;12.45;7.15;;;1.90;99.90;;;;;;6189066;23;20213;-76
2023/01/31 06:20:02;;;;;;;14.48;7.25;;;1.90;99.90;;;;;;6201394;23;20190;-76
2023/01/31 06:22:30;;;;;;;17.70;7.65;;;1.90;99.90;;;;;;6194296;23;20260;-76
2023/01/31 06:24:57;;;;;;;12.80;8.07;;;1.90;99.90;;;;;;6191993;23;20187;-76
2023/01/31 06:27:25;;;;;;;13.55;7.60;;;2.00;99.90;;;;;;6177384;23;20551;-77
2023/01/31 06:29:52;;;;;;;17.45;7.55;;;2.00;99.90;;;;;;6166565;23;20485;-79
2023/01/31 06:32:18;;;;;;;11.70;6.70;;;2.00;99.90;;;;;;6177623;23;20214;-76
2023/01/31 06:34:46;;;;;;;14.10;7.43;;;1.90;99.90;;;;;;6196354;23;20948;-77
2023/01/31 06:37:12;;;;;;;11.52;7.90;;;2.00;99.90;;;;;;6180062;23;20221;-76
2023/01/31 06:39:41;;;;;;;12.73;7.78;;;2.00;99.90;;;;;;6190913;23;20206;-76
2023/01/31 06:42:08;;;;;;;11.77;7.00;;;1.90;99.90;;;;;;6180829;23;20275;-77
2023/01/31 06:44:36;;;;;;;14.30;8.35;;;1.90;99.90;;;;;;6189672;23;20181;-77
2023/01/31 06:47:03;;;;;;;13.35;7.60;;;1.90;99.90;;;;;;6187124;23;20189;-77
2023/01/31 06:49:30;;;;;;;16.52;7.50;;;1.90;99.90;;;;;;6191361;23;20587;-77
2023/01/31 06:51:57;;;;;;;11.25;6.80;;;1.90;99.90;;;;;;6178436;23;20206;-77
2023/01/31 06:54:24;;;;;;;9.95;6.80;;;1.90;99.90;;;;;;6185371;23;20287;-77
2023/01/31 06:56:53;;;;;;;11.55;7.20;;;1.90;99.90;;;;;;6177399;23;20211;-77
2023/01/31 06:59:20;;;;;;;11.45;6.25;;;1.80;99.90;;;;;;6188725;23;20183;-78
2023/01/31 07:01:47;;;;;;;10.80;6.80;;;1.80;99.90;;;;;;6190533;23;20219;-77
2023/01/31 07:04:14;;;;;;;10.02;5.80;;;1.80;99.90;;;;;;6187215;23;20254;-77
2023/01/31 07:06:41;;;;;;;8.27;6.18;;;1.80;99.90;;;;;;6187484;23;20187;-77
2023/01/31 07:09:08;;;;;;;8.77;5.57;;;1.80;99.90;;;;;;6179484;23;20268;-77
2023/01/31 07:11:37;;;;;;;11.13;6.35;;;1.90;99.90;;;;;;6186016;23;20203;-78
2023/01/31 07:14:05;;;;;;;7.93;5.50;;;1.90;99.90;;;;;;6150900;23;20194;-78
2023/01/31 07:16:33;;;;;;;8.55;5.75;;;1.90;99.90;;;;;;6187372;23;20196;-77
2023/01/31 07:19:00;;;;;;;7.90;4.95;;;2.00;99.90;;;;;;6182949;23;20193;-77
2023/01/31 07:21:28;;;;;;;13.68;5.65;;;2.00;99.90;;;;;;6189121;23;20620;-77
2023/01/31 07:23:55;;;;;;;10.98;5.65;;;2.00;99.90;;;;;;6190526;23;20189;-78
2023/01/31 07:26:22;;;;;;;7.95;5.07;;;2.10;99.90;;;;;;6195524;23;20702;-78
2023/01/31 07:28:49;;;;;;;9.70;5.78;;;2.10;99.90;;;;;;6181288;23;20328;-78
2023/01/31 07:31:19;;;;;;;9.45;5.63;;;2.10;99.90;;;;;;6176941;23;20234;-77
2023/01/31 07:33:46;;;;;;;7.68;4.93;;;2.20;99.90;;;;;;6185465;23;20188;-78
2023/01/31 07:36:15;;;;;;;10.05;5.50;;;2.20;99.90;;;;;;6178742;23;20214;-78
2023/01/31 07:38:42;;;;;;;9.68;5.72;;;2.30;99.90;;;;;;6177906;23;20202;-77
2023/01/31 07:41:11;;;;;;;7.53;5.20;;;2.30;99.90;;;;;;6181088;23;20233;-77
2023/01/31 07:43:38;;;;;;;8.07;5.82;;;2.40;99.90;;;;;;6188231;23;20209;-77
2023/01/31 07:46:07;;;;;;;14.13;5.47;;;2.50;99.90;;;;;;6183142;23;20213;-77
2023/01/31 07:48:36;;;;;;;11.07;5.30;;;2.50;99.90;;;;;;6185906;23;20194;-77
2023/01/31 07:51:03;;;;;;;8.60;5.63;;;2.50;99.90;;;;;;6181514;23;20213;-77
2023/01/31 07:53:32;;;;;;;9.70;5.53;;;2.50;99.90;;;;;;6182183;23;20187;-76
2023/01/31 07:56:06;;;;;;;9.63;5.80;;;2.50;99.90;;;;;;6186836;23;20626;-76
2023/01/31 07:58:34;;;;;;;8.02;5.00;;;2.60;99.90;;;;;;6182398;23;20188;-77
2023/01/31 08:03:48;;;;;;;9.15;5.80;;;2.60;99.90;;;;;;6188189;23;20180;-78
2023/01/31 08:06:16;;;;;;;8.30;5.88;;;2.80;99.90;;;;;;6190269;23;20564;-77
2023/01/31 08:08:44;;;;;;;11.82;6.93;;;3.10;99.90;;;;;;6184306;23;20283;-78
2023/01/31 08:11:12;;;;;;;9.65;5.63;;;3.30;99.90;;;;;;6183940;23;20704;-77
2023/01/31 08:13:40;;;;;;;6.55;5.57;;;3.50;99.90;;;;;;6190595;23;20209;-77
2023/01/31 08:16:10;;;;;;;8.13;5.03;;;3.60;99.90;;;;;;6182989;23;20183;-78
2023/01/31 08:18:38;;;;;;;7.70;5.13;;;3.80;99.90;;;;;;6177599;23;20178;-79
2023/01/31 08:21:08;;;;;;;8.38;5.43;;;3.80;99.90;;;;;;6181402;23;20272;-76
2023/01/31 08:23:37;;;;;;;7.88;5.20;;;3.90;99.90;;;;;;6183396;23;20190;-76
2023/01/31 08:26:05;;;;;;;7.28;4.80;;;3.90;99.90;;;;;;6188898;23;20194;-76
2023/01/31 08:28:33;;;;;;;7.53;4.57;;;4.00;99.90;;;;;;6186217;23;20767;-77
2023/01/31 08:31:00;;;;;;;8.32;4.55;;;4.20;99.90;;;;;;6178891;23;20236;-77
2023/01/31 08:33:27;;;;;;;6.32;4.57;;;4.30;99.90;;;;;;6184523;23;20178;-77
2023/01/31 08:35:54;;;;;;;6.93;4.30;;;4.30;99.90;;;;;;6179455;23;20245;-77
2023/01/31 08:38:23;;;;;;;7.60;4.75;;;4.20;99.90;;;;;;6191876;23;20611;-77
2023/01/31 08:40:50;;;;;;;10.32;5.00;;;4.10;99.90;;;;;;6179910;23;20570;-77
2023/01/31 08:43:17;;;;;;;8.63;4.97;;;4.10;99.90;;;;;;6195645;23;20751;-77
2023/01/31 08:45:45;;;;;;;11.68;5.10;;;4.10;99.90;;;;;;6190621;23;20597;-77
2023/01/31 08:48:12;;;;;;;9.25;5.30;;;4.10;99.90;;;;;;6177395;23;20182;-77
2023/01/31 08:50:39;;;;;;;7.15;5.15;;;4.10;99.90;;;;;;6177666;23;20293;-77
2023/01/31 08:53:07;;;;;;;12.85;5.70;;;4.00;99.90;;;;;;6199331;23;20205;-77
2023/01/31 08:55:36;;;;;;;7.05;5.22;;;3.80;99.90;;;;;;6197725;23;20269;-78
2023/01/31 08:58:04;;;;;;;12.05;5.60;;;3.80;99.90;;;;;;6186548;23;20610;-77
2023/01/31 09:00:31;;;;;;;9.38;6.28;;;3.70;99.90;;;;;;6189924;23;20213;-77
2023/01/31 09:03:00;;;;;;;9.15;5.43;;;3.70;99.90;;;;;;6194417;23;20185;-77
2023/01/31 09:05:29;;;;;;;8.88;5.75;;;3.60;99.90;;;;;;6186756;23;20178;-78
2023/01/31 09:07:56;;;;;;;8.93;5.68;;;3.60;99.90;;;;;;6179513;23;20186;-78
2023/01/31 09:10:24;;;;;;;10.02;5.70;;;3.60;99.90;;;;;;6188810;23;20182;-78
2023/01/31 09:12:52;;;;;;;9.32;5.70;;;3.70;99.90;;;;;;6177766;23;20182;-78
2023/01/31 09:15:19;;;;;;;10.50;5.25;;;3.80;99.90;;;;;;6178570;23;20261;-77
2023/01/31 09:17:46;;;;;;;6.03;4.80;;;3.90;99.90;;;;;;6181199;23;20221;-76
2023/01/31 09:20:13;;;;;;;9.73;4.95;;;4.00;99.90;;;;;;6193395;23;20332;-76
2023/01/31 09:22:40;;;;;;;11.63;5.53;;;4.10;99.90;;;;;;6192542;23;20192;-76
2023/01/31 09:25:09;;;;;;;8.27;4.43;;;4.20;99.90;;;;;;6194701;23;20586;-76
2023/01/31 09:27:37;;;;;;;10.05;5.80;;;4.30;99.90;;;;;;6188820;23;20498;-77
2023/01/31 09:30:08;;;;;;;7.45;4.55;;;4.30;99.90;;;;;;6188542;23;20221;-77
2023/01/31 09:32:37;;;;;;;10.35;5.30;;;4.40;99.90;;;;;;6182074;23;20211;-77
2023/01/31 09:35:05;;;;;;;8.32;5.47;;;4.40;99.90;;;;;;6185010;23;20193;-76
2023/01/31 09:37:32;;;;;;;8.75;5.60;;;4.50;99.90;;;;;;6180042;23;20209;-77
2023/01/31 09:39:59;;;;;;;6.95;4.30;;;4.70;99.90;;;;;;6187774;23;20264;-75
2023/01/31 09:42:29;;;;;;;8.20;4.80;;;4.90;99.90;;;;;;6194230;23;20181;-77
2023/01/31 09:45:00;;;;;;;8.48;4.57;;;5.00;99.90;;;;;;6190569;23;20178;-77
2023/01/31 09:47:33;;;;;;;10.73;5.03;;;5.10;99.90;;;;;;6198077;23;20217;-78
2023/01/31 09:50:05;;;;;;;8.82;4.75;;;5.10;99.90;;;;;;6189601;23;20193;-78
2023/01/31 09:52:33;;;;;;;8.85;4.82;;;5.00;99.90;;;;;;6183267;23;20177;-79
2023/01/31 09:55:00;;;;;;;8.65;4.35;;;5.10;99.90;;;;;;6191583;23;20587;-77
2023/01/31 09:57:40;;;;;;;10.43;4.97;;;5.10;99.90;;;;;;6184388;23;20323;-78
2023/01/31 10:00:19;;;;;;;8.82;4.75;;;5.20;99.90;;;;;;6184784;23;20229;-78
2023/01/31 10:03:04;;;;;;;9.38;4.28;;;5.20;99.90;;;;;;6188895;23;20655;-78
2023/01/31 10:05:38;;;;;;;8.85;5.00;;;5.30;99.90;;;;;;6173670;23;20283;-78
2023/01/31 10:08:15;;;;;;;8.05;3.70;;;5.30;99.90;;;;;;6177006;23;20688;-78
2023/01/31 10:10:47;;;;;;;6.20;3.95;;;5.30;99.90;;;;;;6186899;23;20234;-77
2023/01/31 10:13:19;;;;;;;9.18;4.53;;;5.30;99.90;;;;;;6191446;23;20673;-77
2023/01/31 10:15:50;;;;;;;7.47;3.67;;;5.30;99.90;;;;;;6188793;23;20279;-77
2023/01/31 10:18:25;;;;;;;7.50;3.95;;;5.30;99.90;;;;;;6198246;23;20272;-77
2023/01/31 10:20:56;;;;;;;9.35;3.92;;;5.20;99.90;;;;;;6181677;23;20292;-77
2023/01/31 10:23:27;;;;;;;7.30;3.60;;;5.20;99.90;;;;;;6193597;23;20579;-77
2023/01/31 10:26:00;;;;;;;11.88;4.10;;;5.10;99.90;;;;;;6189187;23;20280;-77
2023/01/31 10:28:33;;;;;;;9.18;4.32;;;5.10;99.90;;;;;;6181697;23;20630;-76
2023/01/31 10:31:07;;;;;;;6.55;3.80;;;5.00;99.90;;;;;;6186180;23;20206;-77
2023/01/31 10:33:42;;;;;;;6.78;4.05;;;5.00;99.90;;;;;;6185554;23;20189;-78
2023/01/31 10:36:14;;;;;;;9.20;4.18;;;5.10;99.90;;;;;;6184843;23;20213;-78
2023/01/31 10:38:51;;;;;;;8.18;4.18;;;5.20;99.90;;;;;;6186053;23;20292;-76
2023/01/31 10:41:24;;;;;;;7.60;3.88;;;5.30;99.90;;;;;;6182115;23;20186;-76
2023/01/31 10:43:59;;;;;;;7.30;3.80;;;5.40;99.90;;;;;;6192884;23;20246;-77
2023/01/31 10:46:26;;;;;;;7.95;4.10;;;5.40;99.90;;;;;;6184765;23;20185;-77
2023/01/31 10:48:55;;;;;;;6.75;4.10;;;5.30;99.90;;;;;;6196385;23;20894;-76
2023/01/31 10:51:36;;;;;;;8.80;3.70;;;5.30;99.90;;;;;;6189095;23;20187;-76
2023/01/31 10:54:17;;;;;;;5.47;3.38;;;5.30;99.90;;;;;;6178621;23;20284;-76
2023/01/31 10:56:46;;;;;;;5.45;3.58;;;5.30;99.90;;;;;;6191392;23;20196;-76
2023/01/31 10:59:18;;;;;;;6.80;3.28;;;5.40;99.90;;;;;;6188328;23;20700;-76
2023/01/31 11:01:45;;;;;;;5.60;3.45;;;5.40;99.90;;;;;;6178003;23;20239;-76
2023/01/31 11:04:24;;;;;;;6.55;3.65;;;5.40;99.90;;;;;;6192892;23;20190;-77
2023/01/31 11:06:52;;;;;;;7.53;3.78;;;5.50;99.90;;;;;;6184000;23;20181;-77
2023/01/31 11:09:22;;;;;;;6.20;3.10;;;5.50;99.90;;;;;;6193217;23;20293;-76
2023/01/31 11:11:55;;;;;;;9.07;4.10;;;5.50;99.90;;;;;;6193167;23;20186;-76
2023/01/31 11:14:22;;;;;;;6.57;3.53;;;5.40;99.90;;;;;;6188287;23;20214;-76
2023/01/31 11:16:56;;;;;;;6.75;3.88;;;5.30;99.90;;;;;;6188209;23;20182;-76
2023/01/31 11:19:30;;;;;;;8.13;3.28;;;5.20;99.90;;;;;;6179913;23;20205;-75
2023/01/31 11:21:57;;;;;;;6.78;4.05;;;5.20;99.90;;;;;;6179486;23;20671;-76
2023/01/31 11:24:27;;;;;;;7.72;4.43;;;5.20;99.90;;;;;;6182706;23;20527;-75
2023/01/31 11:26:57;;;;;;;8.45;4.00;;;5.40;99.90;;;;;;6191295;23;20646;-76
2023/01/31 11:29:29;;;;;;;9.25;4.15;;;5.50;99.90;;;;;;6188339;23;20248;-76
2023/01/31 11:31:58;;;;;;;7.07;4.72;;;5.60;99.90;;;;;;6192931;23;20182;-76
2023/01/31 11:34:29;;;;;;;5.15;3.72;;;5.70;99.90;;;;;;6180940;23;20701;-77
2023/01/31 11:37:05;;;;;;;5.25;3.10;;;5.70;99.90;;;;;;6181585;23;20184;-76
2023/01/31 11:39:37;;;;;;;7.88;4.20;;;5.60;99.90;;;;;;6188394;23;20332;-76
2023/01/31 11:42:11;;;;;;;7.13;3.78;;;5.60;99.90;;;;;;6188183;23;20178;-76
2023/01/31 11:44:54;;;;;;;7.22;3.10;;;5.70;99.90;;;;;;6178324;23;20264;-74
2023/01/31 11:47:31;;;;;;;4.82;2.80;;;5.70;99.90;;;;;;6190290;23;20181;-76
2023/01/31 11:50:02;;;;;;;7.47;2.88;;;5.60;99.90;;;;;;6189045;23;20174;-76
2023/01/31 11:52:32;;;;;;;7.60;2.70;;;5.70;99.90;;;;;;6183632;23;20239;-77
2023/01/31 11:55:02;;;;;;;4.38;2.53;;;5.70;99.90;;;;;;6179658;23;20194;-75
2023/01/31 11:57:32;;;;;;;4.78;2.70;;;5.80;99.90;;;;;;6190457;23;20239;-74
2023/01/31 12:00:02;;;;;;;7.63;2.78;;;5.80;99.90;;;;;;6183606;23;20188;-76
2023/01/31 12:02:36;;;;;;;7.15;2.90;;;5.70;99.90;;;;;;6196888;23;20230;-76
2023/01/31 12:05:11;;;;;;;6.18;2.60;;;5.50;99.90;;;;;;6185577;23;20185;-76
2023/01/31 12:07:44;;;;;;;6.45;3.03;;;5.60;99.90;;;;;;6192901;23;20212;-75
2023/01/31 12:10:34;;;;;;;4.57;2.55;;;5.70;99.90;;;;;;6189014;23;20196;-76
2023/01/31 12:13:08;;;;;;;6.65;2.95;;;5.70;99.90;;;;;;6183993;23;20252;-76
2023/01/31 12:15:35;;;;;;;6.82;2.50;;;5.70;99.90;;;;;;6186811;23;20173;-77
2023/01/31 12:18:03;;;;;;;3.95;2.35;;;5.70;99.90;;;;;;6190339;23;20255;-72
2023/01/31 12:20:41;;;;;;;4.55;2.50;;;5.80;99.90;;;;;;6183071;23;20182;-75
2023/01/31 12:23:22;;;;;;;5.85;2.85;;;5.90;99.90;;;;;;6196491;23;20182;-76
2023/01/31 12:26:05;;;;;;;3.75;2.90;;;6.00;99.90;;;;;;6187175;23;20182;-76
2023/01/31 12:28:58;;;;;;;3.85;2.47;;;6.00;99.90;;;;;;6176381;23;20236;-76
2023/01/31 12:31:38;;;;;;;5.97;2.78;;;6.00;99.90;;;;;;6189370;23;20225;-76
2023/01/31 12:34:20;;;;;;;3.90;2.20;;;6.10;99.90;;;;;;6183571;23;20200;-76
2023/01/31 12:37:02;;;;;;;6.18;2.50;;;6.10;99.90;;;;;;6186031;23;20182;-76
2023/01/31 12:39:42;;;;;;;4.22;2.30;;;6.10;99.90;;;;;;6180249;23;20249;-75
2023/01/31 12:42:26;;;;;;;7.20;2.72;;;6.20;99.90;;;;;;6172829;23;20217;-75
2023/01/31 12:45:06;;;;;;;5.30;2.28;;;6.10;99.90;;;;;;6188907;23;20190;-77
2023/01/31 12:47:57;;;;;;;4.50;2.70;;;6.00;99.90;;;;;;6178739;23;20197;-75
2023/01/31 12:50:34;;;;;;;3.67;2.17;;;5.90;99.90;;;;;;6177990;23;20210;-76
2023/01/31 12:53:30;;;;;;;5.82;3.20;;;5.90;99.90;;;;;;6181026;23;20179;-76
2023/01/31 12:56:14;;;;;;;6.35;2.17;;;5.80;99.90;;;;;;6179466;23;20251;-76
2023/01/31 12:58:52;;;;;;;4.63;2.55;;;5.70;99.90;;;;;;6186974;23;20232;-75
2023/01/31 13:01:29;;;;;;;7.35;2.65;;;5.60;99.90;;;;;;6183842;23;20515;-75
2023/01/31 13:04:09;;;;;;;6.05;2.42;;;5.50;99.90;;;;;;6177139;23;20200;-75
2023/01/31 13:06:39;;;;;;;4.88;2.40;;;5.50;99.90;;;;;;6183088;23;20235;-76
2023/01/31 13:09:13;;;;;;;4.53;2.60;;;5.40;99.90;;;;;;6179999;23;20189;-75
2023/01/31 13:11:47;;;;;;;5.10;2.83;;;5.30;99.90;;;;;;6183682;23;20277;-76
2023/01/31 13:14:18;;;;;;;7.18;2.63;;;5.40;99.90;;;;;;6177560;23;20266;-76
2023/01/31 13:16:49;;;;;;;4.40;2.90;;;5.40;99.90;;;;;;6189625;23;20704;-76
2023/01/31 13:19:20;;;;;;;3.80;2.50;;;5.40;99.90;;;;;;6176489;23;20206;-77
2023/01/31 13:21:51;;;;;;;6.90;2.58;;;5.40;99.90;;;;;;6182448;23;20198;-76